Station: Point Fawcett

  Atmospheric Gas Attenuation - ITU Rec 676-11   --------------- db/100km ---------------
Date Time Temp RH % AH g/m3 Dew Point Wind Direction Speed kph Gust kph Barometer mB Rainfall Since 9am 24GHz 47GHz 76GHz 122GHz 134GHz 241GHz
11 22:20 28.5 85 23.76 25.7 11 13 1010.9 1.4 50.7 47.4 96.3 255.0 288.2 1001.6
11 22:10 28.6 84 23.61 25.6 13 15 1010.8 1.4 50.3 47.1 95.4 252.6 285.3 991.6
11 22:00 28.5 84 23.48 25.5 11 17 1010.7 1.4 50.1 46.8 94.9 251.2 283.6 985.5
11 21:50 28.5 84 23.48 25.5 9 13 1010.7 1.4 50.1 46.8 94.9 251.2 283.6 985.5
11 21:40 28.4 84 23.35 25.4 13 15 1010.7 1.4 49.8 46.6 94.3 249.8 281.8 979.5
11 21:30 28.5 84 23.48 25.5 13 15 1010.6 1.4 50.1 46.8 94.8 251.2 283.5 985.5
11 21:20 28.3 83 22.95 25.1 13 15 1010.5 1.4 49.0 45.9 92.4 244.8 275.7 958.1
11 21:10 28.5 84 23.48 25.5 13 13 1010.3 1.4 50.1 46.8 94.8 251.2 283.5 985.3
11 21:00 28.5 84 23.48 25.5 13 17 1010.1 1.4 50.1 46.8 94.8 251.1 283.5 985.1
11 20:50 28.6 83 23.33 25.4 13 15 1010.1 1.4 49.7 46.5 93.9 248.8 280.6 975.3
11 20:40 28.6 83 23.33 25.4 13 15 1010 1.4 49.7 46.5 93.9 248.8 280.6 975.3
11 20:30 28.5 82 22.92 25.1 13 17 1010 1.4 48.9 45.7 92.0 243.7 274.4 953.5
11 20:20 28.6 82 23.05 25.2 11 13 1010 1.4 49.2 45.9 92.5 245.1 276.1 959.5
11 20:10 28.6 81 22.77 25 15 17 1009.8 1.4 48.6 45.3 91.1 241.4 271.5 943.8
11 20:00 28.6 81 22.77 25 13 17 1009.7 1.4 48.6 45.3 91.1 241.4 271.5 943.7
11 19:50 28.6 81 22.77 25 11 13 1009.6 1.4 48.6 45.3 91.1 241.3 271.5 943.7
11 19:40 28.6 81 22.77 25 11 15 1009.6 1.4 48.6 45.3 91.1 241.3 271.5 943.7
11 19:30 28.7 82 23.17 25.3 11 15 1009.5 1.4 49.4 46.1 93.0 246.2 277.6 964.7
11 19:20 28.6 81 22.77 25 13 15 1009.5 1.4 48.6 45.3 91.1 241.3 271.5 943.6
11 19:10 28.8 82 23.3 25.4 11 15 1009.3 1.4 49.7 46.3 93.5 247.6 279.2 970.6
11 19:00 28.9 81 23.14 25.3 13 17 1009.3 1.4 49.3 45.9 92.6 245.2 276.3 960.3
11 18:50 29 80 22.98 25.2 13 15 1009.2 1.4 49.0 45.5 91.6 242.7 273.3 950.0
11 18:40 29.3 79 23.07 25.3 9 11 1009 1.4 49.1 45.5 91.7 242.9 273.6 951.1
11 18:30 29.5 77 22.73 25 13 15 1009 1.4 48.4 44.7 89.8 237.8 267.5 929.9
11 18:20 29.9 77 23.23 25.4 13 15 1008.8 1.4 49.4 45.5 91.7 243.0 273.9 952.2
11 18:10 30.1 76 23.18 25.4 13 17 1008.7 1.4 49.2 45.3 91.2 241.7 272.4 946.9
11 18:00 30.6 77 24.12 26.1 11 17 1008.7 1.4 51.2 46.8 95.2 252.2 285.5 992.4
11 17:50 30.4 75 23.25 25.5 13 15 1008.6 1.4 49.4 45.2 91.2 241.6 272.4 946.9
11 17:40 30.8 73 23.12 25.4 13 15 1008.6 1.4 49.0 44.8 90.1 238.7 268.9 934.8
11 17:30 30.8 73 23.12 25.4 11 17 1008.5 1.4 49.0 44.8 90.1 238.6 268.8 934.7
11 17:20 31 73 23.37 25.6 13 15 1008.5 1.4 49.5 45.1 91.1 241.2 272.0 945.8
11 17:10 31.1 71 22.85 25.4 13 17 1008.5 1.4 48.4 44.1 88.4 234.3 263.6 916.5
11 17:00 31.2 73 23.62 25.8 13 17 1008.5 1.4 50.0 45.5 92.0 243.8 275.2 956.9
11 16:50 31.4 74 24.2 26.2 11 15 1008.5 1.4 51.2 46.5 94.6 250.6 283.6 986.2
11 16:40 31.3 71 23.1 25.6 15 17 1008.7 1.4 48.9 44.5 89.4 236.8 266.8 927.6
11 16:30 31.3 73 23.75 25.9 13 19 1008.7 1.4 50.3 45.7 92.5 245.1 276.9 962.9
11 16:20 31.5 73 24 26.1 13 15 1008.6 1.4 50.8 46.1 93.5 247.7 280.1 973.9
11 16:10 31.6 71 23.47 25.7 13 15 1008.6 1.4 49.7 45.0 90.8 240.6 271.4 943.8
11 16:00 31.5 72 23.67 25.8 13 19 1008.4 1.4 50.1 45.4 91.9 243.4 274.9 955.8
11 15:50 31.3 73 23.75 25.9 13 15 1008.4 1.2 50.3 45.7 92.5 245.1 276.9 962.7
11 15:40 30.9 74 23.56 25.9 15 17 1008.4 1.2 49.9 45.5 92.1 243.9 275.4 957.4
11 15:30 30.5 75 23.37 25.6 13 17 1008.4 1.2 49.6 45.4 91.7 242.8 273.9 952.1
11 15:20 31.1 75 24.14 26.1 11 15 1008.4 1.2 51.1 46.6 94.7 250.8 283.8 986.7
11 15:10 30.8 76 24.07 26.1 11 17 1008.4 1.2 51.0 46.6 94.7 250.9 283.8 986.8
11 15:00 31.1 79 25.42 27 13 17 1008.3 1.2 53.8 49.1 101.0 267.6 304.5 1058.4
11 14:50 29.9 78 23.53 25.6 13 17 1008.4 1.2 50.0 46.0 93.2 246.8 278.6 968.6
11 14:40 30.1 78 23.79 26 13 15 1008.5 1.2 50.5 46.5 94.2 249.6 282.1 980.5
11 14:30 30.2 83 25.45 27 11 15 1008.7 1.2 54.0 49.7 102.4 271.4 308.8 1073.3
11 14:20 29.6 85 25.23 26.8 11 13 1008.8 1.2 53.6 49.7 102.1 270.6 307.7 1069.3
11 14:10 29.4 84 24.66 26.4 7 11 1009.1 1.2 52.5 48.6 99.5 263.6 299.1 1039.5
11 14:00 29.3 83 24.24 26.1 6 15 1008.9 1.2 51.6 47.8 97.5 258.3 292.5 1016.8
11 13:50 29.4 82 24.07 26 7 7 1009.3 1.2 51.2 47.4 96.6 255.8 289.4 1006.0
11 13:40 29.8 80 24 26 2 7 1009.6 1.2 51.0 47.1 95.7 253.5 286.8 996.9
11 13:30 30.3 77 23.74 25.8 9 15 1009.8 0.2 50.4 46.3 93.8 248.5 280.7 975.9
11 13:20 30.7 75 23.62 25.8 9 13 1009.6 0 50.1 45.8 92.7 245.6 277.3 964.0
11 13:10 31.4 75 24.53 26.4 13 15 1009.7 0 51.9 47.2 96.3 255.1 289.1 1005.2
11 13:00 31 74 23.69 26 13 19 1009.9 0 50.2 45.8 92.7 245.5 277.3 964.2
11 12:50 31.7 72 23.93 26 13 15 1010.1 0 50.6 45.9 93.0 246.4 278.5 968.5
11 12:40 31.7 77 25.59 27.2 15 17 1010.2 0 54.1 49.2 101.2 268.1 305.1 1060.8
11 12:30 31.7 75 24.93 26.7 13 19 1010.2 0 52.7 47.9 97.9 259.4 294.4 1023.7
11 12:20 31.6 75 24.79 26.6 15 17 1010.4 0 52.4 47.7 97.3 257.9 292.6 1017.4
11 12:10 31.7 75 24.93 26.7 15 17 1010.6 0 52.7 47.9 97.9 259.4 294.5 1024.0
11 12:00 31.8 75 25.06 26.8 11 19 1010.9 0 52.9 48.1 98.5 260.9 296.3 1030.1
11 11:50 31.6 73 24.13 26.2 11 15 1011 0 51.0 46.4 94.2 249.4 282.2 981.3
11 11:40 31.6 74 24.46 26.4 13 15 1011.2 0 51.7 47.0 95.8 253.8 287.5 999.6
11 11:30 31.7 76 25.26 26.9 11 17 1011.3 0 53.4 48.6 99.6 263.9 300.0 1042.9
11 11:20 31.3 76 24.72 26.6 13 15 1011.5 0 52.3 47.7 97.5 258.2 292.9 1018.3
11 11:10 31.4 77 25.18 26.9 13 15 1011.6 0 53.3 48.6 99.6 264.0 299.9 1042.8
11 11:00 31.1 77 24.78 26.6 11 15 1011.7 0 52.5 48.0 98.0 259.7 294.7 1024.5
11 10:50 31 79 25.29 26.9 9 11 1011.6 0 53.5 49.1 100.7 266.9 303.4 1054.6
11 10:40 30.5 77 23.99 26 13 13 1011.7 0 50.9 46.8 94.9 251.4 284.3 988.4
11 10:30 30.6 80 25.06 26.7 9 15 1011.7 0 53.1 48.8 100.1 265.2 301.3 1047.3
11 10:20 30 80 24.26 26.2 11 13 1011.6 0 51.5 47.6 96.9 256.6 290.6 1010.1
11 10:10 30.1 80 24.4 26.3 9 11 1011.6 0 51.8 47.8 97.5 258.2 292.5 1016.7
11 10:00 29.9 82 24.74 26.5 11 13 1011.5 0 52.5 48.6 99.4 263.4 298.8 1038.7
11 09:50 29.9 82 24.74 26.5 7 9 1011.6 0 52.5 48.6 99.4 263.4 298.8 1038.8
11 09:40 29.5 83 24.5 26.3 9 9 1011.6 0 52.1 48.4 98.8 261.6 296.5 1030.6
11 09:30 29.5 83 24.5 26.3 6 9 1011.5 0 52.1 48.4 98.7 261.6 296.5 1030.5
11 09:20 29.3 84 24.53 26.3 6 7 1011.5 0 52.2 48.5 99.2 262.7 297.8 1035.0
11 09:10 29.4 83 24.37 26.2 7 7 1011.3 0 51.8 48.1 98.2 260.1 294.7 1024.4
11 09:00 29 85 24.42 26.2 7 7 1011.2 0 52.0 48.5 99.0 262.2 297.1 1032.7
11 08:50 29 86 24.71 26.4 4 6 1011.1 0 52.6 49.1 100.5 266.1 301.9 1049.3
11 08:40 28.7 89 25.15 26.7 6 6 1011 0 53.6 50.2 103.1 273.2 310.5 1079.2
11 08:30 28.5 91 25.44 26.9 6 9 1011 0 54.2 50.9 104.9 278.0 316.3 1099.2
11 08:20 28.2 94 25.85 27.1 7 7 1011 0 55.2 51.9 107.5 284.8 324.7 1128.1
11 08:10 27.9 97 26.24 27.4 7 7 1010.8 0 56.0 53.0 110.0 291.5 332.8 1156.1
11 08:00 27.7 97 25.95 27.2 6 7 1010.8 0 55.4 52.5 108.8 288.2 328.6 1141.7
11 07:50 27.4 97 25.52 26.9 6 7 1010.8 0 54.6 51.8 106.9 283.2 322.5 1120.4
11 07:40 26.9 97 24.83 26.4 0 0 1010.6 0 53.2 50.6 104.0 275.4 312.7 1086.4
11 07:30 26.5 97 24.28 26 0 0 1010.5 0 52.1 49.7 101.6 269.1 304.9 1059.4
11 07:20 26.3 97 24.01 25.8 0 0 1010.4 0 51.5 49.2 100.5 266.1 301.1 1046.1
11 07:10 26.1 97 23.75 25.6 0 0 1010.4 0 51.0 48.8 99.4 263.2 297.5 1033.6
11 07:00 25.8 97 23.35 25.3 0 0 1010.3 0 50.2 48.1 97.7 258.7 291.9 1014.1
11 06:50 25.7 97 23.22 25.2 0 0 1010.2 0 49.9 47.9 97.1 257.2 290.1 1007.8
11 06:40 25.7 97 23.22 25.2 0 6 1010 0 49.9 47.9 97.1 257.2 290.1 1007.7
11 06:30 25.7 97 23.22 25.2 0 0 1010 0 49.9 47.9 97.1 257.2 290.1 1007.7
11 06:20 25.7 96 22.98 25 0 0 1009.9 0 49.4 47.4 95.9 253.8 286.0 993.5
11 06:10 25.7 96 22.98 25 0 0 1009.8 0 49.4 47.4 95.8 253.8 286.0 993.5
11 06:00 25.7 96 22.98 25 0 0 1009.6 0 49.4 47.4 95.8 253.8 286.0 993.4
11 05:50 25.7 96 22.98 25 0 0 1009.6 0 49.4 47.4 95.8 253.8 286.0 993.4

Last Refresh: 11-Apr-2021 22:32:21

Bureau of Meteorology